sensor_id;sensor_type;location;lat;lon;timestamp;P1;durP1;ratioP1;P2;durP2;ratioP2
74620;SDS011;64861;47.546;19.254;2022-12-10T00:01:33;20.02;;;5.60;;
74620;SDS011;64861;47.546;19.254;2022-12-10T00:04:00;20.13;;;5.03;;
74620;SDS011;64861;47.546;19.254;2022-12-10T00:06:27;19.75;;;5.05;;
74620;SDS011;64861;47.546;19.254;2022-12-10T00:08:54;15.82;;;4.95;;
74620;SDS011;64861;47.546;19.254;2022-12-10T00:11:21;22.48;;;5.30;;
74620;SDS011;64861;47.546;19.254;2022-12-10T00:13:48;21.85;;;5.20;;
74620;SDS011;64861;47.546;19.254;2022-12-10T00:16:15;19.30;;;5.38;;
74620;SDS011;64861;47.546;19.254;2022-12-10T00:18:42;25.25;;;5.15;;
74620;SDS011;64861;47.546;19.254;2022-12-10T00:21:10;21.38;;;4.80;;
74620;SDS011;64861;47.546;19.254;2022-12-10T00:23:38;14.80;;;4.75;;
74620;SDS011;64861;47.546;19.254;2022-12-10T00:26:05;18.30;;;4.45;;
74620;SDS011;64861;47.546;19.254;2022-12-10T00:28:32;14.77;;;4.35;;
74620;SDS011;64861;47.546;19.254;2022-12-10T00:31:02;17.73;;;4.30;;
74620;SDS011;64861;47.546;19.254;2022-12-10T00:33:29;15.00;;;4.15;;
74620;SDS011;64861;47.546;19.254;2022-12-10T00:35:54;16.33;;;4.72;;
74620;SDS011;64861;47.546;19.254;2022-12-10T00:38:20;12.60;;;4.13;;
74620;SDS011;64861;47.546;19.254;2022-12-10T00:40:46;17.73;;;4.95;;
74620;SDS011;64861;47.546;19.254;2022-12-10T00:43:11;14.13;;;3.95;;
74620;SDS011;64861;47.546;19.254;2022-12-10T00:45:36;12.98;;;4.40;;
74620;SDS011;64861;47.546;19.254;2022-12-10T00:48:02;18.27;;;4.53;;
74620;SDS011;64861;47.546;19.254;2022-12-10T00:50:27;15.45;;;4.85;;
74620;SDS011;64861;47.546;19.254;2022-12-10T00:52:53;15.63;;;4.47;;
74620;SDS011;64861;47.546;19.254;2022-12-10T00:55:18;14.57;;;4.18;;
74620;SDS011;64861;47.546;19.254;2022-12-10T00:57:43;18.88;;;4.80;;
74620;SDS011;64861;47.546;19.254;2022-12-10T01:00:09;14.60;;;4.35;;
74620;SDS011;64861;47.546;19.254;2022-12-10T01:02:35;10.48;;;3.88;;
74620;SDS011;64861;47.546;19.254;2022-12-10T01:05:00;12.30;;;4.63;;
74620;SDS011;64861;47.546;19.254;2022-12-10T01:07:26;12.95;;;4.07;;
74620;SDS011;64861;47.546;19.254;2022-12-10T01:09:51;15.48;;;4.38;;
74620;SDS011;64861;47.546;19.254;2022-12-10T01:12:17;13.07;;;4.30;;
74620;SDS011;64861;47.546;19.254;2022-12-10T01:14:42;12.50;;;4.13;;
74620;SDS011;64861;47.546;19.254;2022-12-10T01:17:08;12.25;;;4.32;;
74620;SDS011;64861;47.546;19.254;2022-12-10T01:19:33;12.02;;;4.30;;
74620;SDS011;64861;47.546;19.254;2022-12-10T01:21:59;12.18;;;4.75;;
74620;SDS011;64861;47.546;19.254;2022-12-10T01:24:25;12.85;;;4.43;;
74620;SDS011;64861;47.546;19.254;2022-12-10T01:26:52;11.05;;;3.60;;
74620;SDS011;64861;47.546;19.254;2022-12-10T01:29:19;12.63;;;3.90;;
74620;SDS011;64861;47.546;19.254;2022-12-10T01:31:45;13.65;;;3.97;;
74620;SDS011;64861;47.546;19.254;2022-12-10T01:34:16;12.75;;;3.88;;
74620;SDS011;64861;47.546;19.254;2022-12-10T01:36:42;12.27;;;4.30;;
74620;SDS011;64861;47.546;19.254;2022-12-10T01:39:09;11.00;;;4.07;;
74620;SDS011;64861;47.546;19.254;2022-12-10T01:41:38;14.90;;;4.03;;
74620;SDS011;64861;47.546;19.254;2022-12-10T01:46:50;10.70;;;3.85;;
74620;SDS011;64861;47.546;19.254;2022-12-10T01:49:24;10.50;;;3.78;;
74620;SDS011;64861;47.546;19.254;2022-12-10T01:51:58;10.60;;;3.70;;
74620;SDS011;64861;47.546;19.254;2022-12-10T01:54:31;12.98;;;4.10;;
74620;SDS011;64861;47.546;19.254;2022-12-10T01:59:32;9.93;;;4.00;;
74620;SDS011;64861;47.546;19.254;2022-12-10T02:02:01;10.15;;;4.13;;
74620;SDS011;64861;47.546;19.254;2022-12-10T02:07:26;12.38;;;3.85;;
74620;SDS011;64861;47.546;19.254;2022-12-10T02:10:06;10.85;;;4.13;;
74620;SDS011;64861;47.546;19.254;2022-12-10T02:12:47;10.73;;;4.38;;
74620;SDS011;64861;47.546;19.254;2022-12-10T02:15:18;11.63;;;4.68;;
74620;SDS011;64861;47.546;19.254;2022-12-10T02:18:03;10.40;;;4.15;;
74620;SDS011;64861;47.546;19.254;2022-12-10T02:23:22;12.52;;;4.63;;
74620;SDS011;64861;47.546;19.254;2022-12-10T02:31:37;12.07;;;4.43;;
74620;SDS011;64861;47.546;19.254;2022-12-10T02:34:07;12.88;;;4.60;;
74620;SDS011;64861;47.546;19.254;2022-12-10T02:36:34;8.60;;;3.92;;
74620;SDS011;64861;47.546;19.254;2022-12-10T02:39:04;8.90;;;3.97;;
74620;SDS011;64861;47.546;19.254;2022-12-10T02:41:36;9.18;;;4.07;;
74620;SDS011;64861;47.546;19.254;2022-12-10T02:44:07;10.25;;;4.32;;
74620;SDS011;64861;47.546;19.254;2022-12-10T02:46:36;9.45;;;4.50;;
74620;SDS011;64861;47.546;19.254;2022-12-10T02:49:03;9.40;;;3.92;;
74620;SDS011;64861;47.546;19.254;2022-12-10T02:51:31;9.82;;;4.45;;
74620;SDS011;64861;47.546;19.254;2022-12-10T02:54:04;11.30;;;4.32;;
74620;SDS011;64861;47.546;19.254;2022-12-10T02:56:36;7.65;;;3.80;;
74620;SDS011;64861;47.546;19.254;2022-12-10T02:59:25;8.52;;;4.00;;
74620;SDS011;64861;47.546;19.254;2022-12-10T03:02:02;8.93;;;3.83;;
74620;SDS011;64861;47.546;19.254;2022-12-10T03:07:44;9.23;;;3.67;;
74620;SDS011;64861;47.546;19.254;2022-12-10T03:10:17;9.70;;;3.70;;
74620;SDS011;64861;47.546;19.254;2022-12-10T03:12:58;8.55;;;3.80;;
74620;SDS011;64861;47.546;19.254;2022-12-10T03:15:30;9.75;;;3.80;;
74620;SDS011;64861;47.546;19.254;2022-12-10T03:17:58;9.13;;;3.90;;
74620;SDS011;64861;47.546;19.254;2022-12-10T03:20:27;7.25;;;3.70;;
74620;SDS011;64861;47.546;19.254;2022-12-10T03:22:55;8.48;;;4.00;;
74620;SDS011;64861;47.546;19.254;2022-12-10T03:25:22;8.93;;;3.90;;
74620;SDS011;64861;47.546;19.254;2022-12-10T03:27:50;9.32;;;4.13;;
74620;SDS011;64861;47.546;19.254;2022-12-10T03:30:18;8.10;;;4.03;;
74620;SDS011;64861;47.546;19.254;2022-12-10T03:32:44;7.35;;;3.50;;
74620;SDS011;64861;47.546;19.254;2022-12-10T03:35:11;7.20;;;3.35;;
74620;SDS011;64861;47.546;19.254;2022-12-10T03:37:39;7.93;;;3.50;;
74620;SDS011;64861;47.546;19.254;2022-12-10T03:40:04;9.75;;;3.42;;
74620;SDS011;64861;47.546;19.254;2022-12-10T03:42:31;8.57;;;3.42;;
74620;SDS011;64861;47.546;19.254;2022-12-10T03:44:57;6.65;;;3.50;;
74620;SDS011;64861;47.546;19.254;2022-12-10T03:47:22;7.35;;;3.20;;
74620;SDS011;64861;47.546;19.254;2022-12-10T03:49:49;7.40;;;3.17;;
74620;SDS011;64861;47.546;19.254;2022-12-10T03:52:14;6.72;;;3.33;;
74620;SDS011;64861;47.546;19.254;2022-12-10T03:54:40;7.35;;;3.65;;
74620;SDS011;64861;47.546;19.254;2022-12-10T03:57:06;7.60;;;3.63;;
74620;SDS011;64861;47.546;19.254;2022-12-10T03:59:32;6.50;;;3.15;;
74620;SDS011;64861;47.546;19.254;2022-12-10T04:01:57;7.85;;;3.53;;
74620;SDS011;64861;47.546;19.254;2022-12-10T04:04:23;7.38;;;3.50;;
74620;SDS011;64861;47.546;19.254;2022-12-10T04:06:49;6.35;;;3.22;;
74620;SDS011;64861;47.546;19.254;2022-12-10T04:09:15;7.30;;;3.40;;
74620;SDS011;64861;47.546;19.254;2022-12-10T04:11:41;8.13;;;3.50;;
74620;SDS011;64861;47.546;19.254;2022-12-10T04:14:10;6.85;;;3.47;;
74620;SDS011;64861;47.546;19.254;2022-12-10T04:16:55;7.70;;;3.70;;
74620;SDS011;64861;47.546;19.254;2022-12-10T04:19:20;6.72;;;3.15;;
74620;SDS011;64861;47.546;19.254;2022-12-10T04:21:46;7.45;;;3.63;;
74620;SDS011;64861;47.546;19.254;2022-12-10T04:24:31;7.47;;;3.75;;
74620;SDS011;64861;47.546;19.254;2022-12-10T04:27:19;6.43;;;3.15;;
74620;SDS011;64861;47.546;19.254;2022-12-10T04:29:51;6.00;;;3.35;;
74620;SDS011;64861;47.546;19.254;2022-12-10T04:32:17;7.15;;;3.33;;
74620;SDS011;64861;47.546;19.254;2022-12-10T04:34:43;6.40;;;3.40;;
74620;SDS011;64861;47.546;19.254;2022-12-10T04:37:09;6.07;;;3.38;;
74620;SDS011;64861;47.546;19.254;2022-12-10T04:39:36;7.18;;;3.05;;
74620;SDS011;64861;47.546;19.254;2022-12-10T04:42:02;7.40;;;3.05;;
74620;SDS011;64861;47.546;19.254;2022-12-10T04:44:29;7.28;;;3.30;;
74620;SDS011;64861;47.546;19.254;2022-12-10T04:46:54;7.82;;;3.50;;
74620;SDS011;64861;47.546;19.254;2022-12-10T04:49:20;6.55;;;3.53;;
74620;SDS011;64861;47.546;19.254;2022-12-10T04:51:46;6.63;;;2.97;;
74620;SDS011;64861;47.546;19.254;2022-12-10T04:54:12;10.32;;;3.30;;
74620;SDS011;64861;47.546;19.254;2022-12-10T04:56:38;7.97;;;3.13;;
74620;SDS011;64861;47.546;19.254;2022-12-10T04:59:04;5.70;;;3.03;;
74620;SDS011;64861;47.546;19.254;2022-12-10T05:01:30;7.50;;;2.95;;
74620;SDS011;64861;47.546;19.254;2022-12-10T05:03:57;6.47;;;2.83;;
74620;SDS011;64861;47.546;19.254;2022-12-10T05:06:24;6.25;;;2.92;;
74620;SDS011;64861;47.546;19.254;2022-12-10T05:08:50;6.25;;;3.05;;
74620;SDS011;64861;47.546;19.254;2022-12-10T05:11:16;7.13;;;2.80;;
74620;SDS011;64861;47.546;19.254;2022-12-10T05:13:43;7.18;;;3.00;;
74620;SDS011;64861;47.546;19.254;2022-12-10T05:16:10;6.28;;;3.15;;
74620;SDS011;64861;47.546;19.254;2022-12-10T05:18:37;6.40;;;3.10;;
74620;SDS011;64861;47.546;19.254;2022-12-10T05:21:04;6.25;;;3.05;;
74620;SDS011;64861;47.546;19.254;2022-12-10T05:23:33;5.57;;;2.60;;
74620;SDS011;64861;47.546;19.254;2022-12-10T05:26:08;6.22;;;2.90;;
74620;SDS011;64861;47.546;19.254;2022-12-10T05:28:43;4.80;;;2.63;;
74620;SDS011;64861;47.546;19.254;2022-12-10T05:31:18;6.07;;;2.55;;
74620;SDS011;64861;47.546;19.254;2022-12-10T05:33:45;5.90;;;2.92;;
74620;SDS011;64861;47.546;19.254;2022-12-10T05:36:11;6.32;;;2.90;;
74620;SDS011;64861;47.546;19.254;2022-12-10T05:38:38;5.35;;;2.83;;
74620;SDS011;64861;47.546;19.254;2022-12-10T05:41:12;6.60;;;2.92;;
74620;SDS011;64861;47.546;19.254;2022-12-10T05:43:42;6.50;;;2.85;;
74620;SDS011;64861;47.546;19.254;2022-12-10T05:46:13;5.25;;;2.90;;
74620;SDS011;64861;47.546;19.254;2022-12-10T05:48:44;5.88;;;2.80;;
74620;SDS011;64861;47.546;19.254;2022-12-10T05:51:11;4.93;;;2.63;;
74620;SDS011;64861;47.546;19.254;2022-12-10T05:53:38;6.88;;;3.17;;
74620;SDS011;64861;47.546;19.254;2022-12-10T05:56:08;6.45;;;2.70;;
74620;SDS011;64861;47.546;19.254;2022-12-10T05:58:38;6.32;;;2.75;;
74620;SDS011;64861;47.546;19.254;2022-12-10T06:01:06;6.18;;;2.83;;
74620;SDS011;64861;47.546;19.254;2022-12-10T06:03:33;5.70;;;2.85;;
74620;SDS011;64861;47.546;19.254;2022-12-10T06:05:59;5.63;;;2.35;;
74620;SDS011;64861;47.546;19.254;2022-12-10T06:08:24;4.97;;;2.45;;
74620;SDS011;64861;47.546;19.254;2022-12-10T06:10:50;5.57;;;2.58;;
74620;SDS011;64861;47.546;19.254;2022-12-10T06:13:15;4.68;;;2.50;;
74620;SDS011;64861;47.546;19.254;2022-12-10T06:15:41;9.45;;;2.83;;
74620;SDS011;64861;47.546;19.254;2022-12-10T06:18:07;5.18;;;2.63;;
74620;SDS011;64861;47.546;19.254;2022-12-10T06:20:33;5.40;;;2.83;;
74620;SDS011;64861;47.546;19.254;2022-12-10T06:23:02;6.03;;;2.45;;
74620;SDS011;64861;47.546;19.254;2022-12-10T06:25:27;6.55;;;2.72;;
74620;SDS011;64861;47.546;19.254;2022-12-10T06:27:53;5.32;;;2.67;;
74620;SDS011;64861;47.546;19.254;2022-12-10T06:30:18;4.60;;;2.50;;
74620;SDS011;64861;47.546;19.254;2022-12-10T06:32:43;5.55;;;2.50;;
74620;SDS011;64861;47.546;19.254;2022-12-10T06:35:09;4.72;;;2.50;;
74620;SDS011;64861;47.546;19.254;2022-12-10T06:37:36;5.30;;;2.42;;
74620;SDS011;64861;47.546;19.254;2022-12-10T06:40:02;5.78;;;2.50;;
74620;SDS011;64861;47.546;19.254;2022-12-10T06:42:28;5.07;;;2.55;;
74620;SDS011;64861;47.546;19.254;2022-12-10T06:44:53;5.43;;;2.40;;
74620;SDS011;64861;47.546;19.254;2022-12-10T06:47:19;4.65;;;2.45;;
74620;SDS011;64861;47.546;19.254;2022-12-10T06:49:44;5.50;;;2.42;;
74620;SDS011;64861;47.546;19.254;2022-12-10T06:52:10;4.30;;;2.28;;
74620;SDS011;64861;47.546;19.254;2022-12-10T06:54:35;5.40;;;2.75;;
74620;SDS011;64861;47.546;19.254;2022-12-10T06:57:01;4.95;;;2.47;;
74620;SDS011;64861;47.546;19.254;2022-12-10T06:59:26;5.13;;;2.55;;
74620;SDS011;64861;47.546;19.254;2022-12-10T07:01:52;5.32;;;2.65;;
74620;SDS011;64861;47.546;19.254;2022-12-10T07:04:17;5.55;;;2.40;;
74620;SDS011;64861;47.546;19.254;2022-12-10T07:06:43;5.53;;;2.53;;
74620;SDS011;64861;47.546;19.254;2022-12-10T07:09:09;8.88;;;2.70;;
74620;SDS011;64861;47.546;19.254;2022-12-10T07:11:34;8.45;;;2.75;;
74620;SDS011;64861;47.546;19.254;2022-12-10T07:14:00;44.42;;;4.38;;
74620;SDS011;64861;47.546;19.254;2022-12-10T07:16:26;53.25;;;4.95;;
74620;SDS011;64861;47.546;19.254;2022-12-10T07:18:54;40.83;;;4.90;;
74620;SDS011;64861;47.546;19.254;2022-12-10T07:21:25;59.45;;;4.93;;
74620;SDS011;64861;47.546;19.254;2022-12-10T07:23:53;40.92;;;5.10;;
74620;SDS011;64861;47.546;19.254;2022-12-10T07:26:22;34.35;;;4.72;;
74620;SDS011;64861;47.546;19.254;2022-12-10T07:28:49;37.53;;;4.13;;
74620;SDS011;64861;47.546;19.254;2022-12-10T07:31:14;30.77;;;4.78;;
74620;SDS011;64861;47.546;19.254;2022-12-10T07:33:39;51.85;;;5.03;;
74620;SDS011;64861;47.546;19.254;2022-12-10T07:36:05;41.10;;;4.53;;
74620;SDS011;64861;47.546;19.254;2022-12-10T07:38:33;30.88;;;4.22;;
74620;SDS011;64861;47.546;19.254;2022-12-10T07:41:02;35.92;;;4.13;;
74620;SDS011;64861;47.546;19.254;2022-12-10T07:43:36;23.40;;;4.30;;
74620;SDS011;64861;47.546;19.254;2022-12-10T07:46:03;45.13;;;4.38;;
74620;SDS011;64861;47.546;19.254;2022-12-10T07:48:30;31.00;;;4.63;;
74620;SDS011;64861;47.546;19.254;2022-12-10T07:50:56;28.85;;;4.53;;
74620;SDS011;64861;47.546;19.254;2022-12-10T07:53:22;26.77;;;3.63;;
74620;SDS011;64861;47.546;19.254;2022-12-10T07:55:49;31.15;;;4.30;;
74620;SDS011;64861;47.546;19.254;2022-12-10T07:58:15;30.45;;;4.47;;
74620;SDS011;64861;47.546;19.254;2022-12-10T08:00:40;40.55;;;3.90;;
74620;SDS011;64861;47.546;19.254;2022-12-10T08:03:05;37.85;;;4.97;;
74620;SDS011;64861;47.546;19.254;2022-12-10T08:05:32;48.92;;;4.43;;
74620;SDS011;64861;47.546;19.254;2022-12-10T08:07:58;37.20;;;4.82;;
74620;SDS011;64861;47.546;19.254;2022-12-10T08:10:23;51.58;;;5.75;;
74620;SDS011;64861;47.546;19.254;2022-12-10T08:12:49;48.63;;;7.03;;
74620;SDS011;64861;47.546;19.254;2022-12-10T08:15:14;43.90;;;7.10;;
74620;SDS011;64861;47.546;19.254;2022-12-10T08:17:39;52.67;;;6.57;;
74620;SDS011;64861;47.546;19.254;2022-12-10T08:20:05;45.35;;;6.75;;
74620;SDS011;64861;47.546;19.254;2022-12-10T08:22:31;39.00;;;5.63;;
74620;SDS011;64861;47.546;19.254;2022-12-10T08:24:59;36.47;;;5.40;;
74620;SDS011;64861;47.546;19.254;2022-12-10T08:27:24;36.40;;;4.97;;
74620;SDS011;64861;47.546;19.254;2022-12-10T08:29:50;41.53;;;4.82;;
74620;SDS011;64861;47.546;19.254;2022-12-10T08:32:15;45.08;;;5.43;;
74620;SDS011;64861;47.546;19.254;2022-12-10T08:34:41;39.08;;;5.10;;
74620;SDS011;64861;47.546;19.254;2022-12-10T08:37:06;32.95;;;4.95;;
74620;SDS011;64861;47.546;19.254;2022-12-10T08:39:31;39.72;;;4.90;;
74620;SDS011;64861;47.546;19.254;2022-12-10T08:41:58;28.33;;;4.63;;
74620;SDS011;64861;47.546;19.254;2022-12-10T08:44:24;32.10;;;4.20;;
74620;SDS011;64861;47.546;19.254;2022-12-10T08:46:49;26.75;;;4.43;;
74620;SDS011;64861;47.546;19.254;2022-12-10T08:49:14;25.30;;;4.15;;
74620;SDS011;64861;47.546;19.254;2022-12-10T08:51:40;31.63;;;4.75;;
74620;SDS011;64861;47.546;19.254;2022-12-10T08:54:06;22.67;;;4.85;;
74620;SDS011;64861;47.546;19.254;2022-12-10T08:56:31;23.55;;;4.43;;
74620;SDS011;64861;47.546;19.254;2022-12-10T08:58:56;31.10;;;4.20;;
74620;SDS011;64861;47.546;19.254;2022-12-10T09:01:22;26.58;;;4.07;;
74620;SDS011;64861;47.546;19.254;2022-12-10T09:03:47;27.10;;;3.88;;
74620;SDS011;64861;47.546;19.254;2022-12-10T09:06:14;23.48;;;3.75;;
74620;SDS011;64861;47.546;19.254;2022-12-10T09:08:42;41.17;;;4.60;;
74620;SDS011;64861;47.546;19.254;2022-12-10T09:11:08;30.25;;;4.00;;
74620;SDS011;64861;47.546;19.254;2022-12-10T09:13:39;29.55;;;4.30;;
74620;SDS011;64861;47.546;19.254;2022-12-10T09:16:05;29.98;;;3.90;;
74620;SDS011;64861;47.546;19.254;2022-12-10T09:18:30;34.67;;;4.40;;
74620;SDS011;64861;47.546;19.254;2022-12-10T09:20:56;26.75;;;4.38;;
74620;SDS011;64861;47.546;19.254;2022-12-10T09:23:21;41.05;;;4.53;;
74620;SDS011;64861;47.546;19.254;2022-12-10T09:25:47;142.45;;;9.40;;
74620;SDS011;64861;47.546;19.254;2022-12-10T09:28:13;258.27;;;15.23;;
74620;SDS011;64861;47.546;19.254;2022-12-10T09:30:38;165.32;;;10.23;;
74620;SDS011;64861;47.546;19.254;2022-12-10T09:33:03;1033.03;;;62.00;;
74620;SDS011;64861;47.546;19.254;2022-12-10T09:35:29;473.25;;;25.73;;
74620;SDS011;64861;47.546;19.254;2022-12-10T09:37:55;670.20;;;40.75;;
74620;SDS011;64861;47.546;19.254;2022-12-10T09:40:44;1217.45;;;103.82;;
74620;SDS011;64861;47.546;19.254;2022-12-10T09:43:28;1999.90;;;238.25;;
74620;SDS011;64861;47.546;19.254;2022-12-10T09:51:50;1774.90;;;135.40;;
74620;SDS011;64861;47.546;19.254;2022-12-10T09:54:27;1404.07;;;103.50;;
74620;SDS011;64861;47.546;19.254;2022-12-10T09:56:59;1271.47;;;96.68;;
74620;SDS011;64861;47.546;19.254;2022-12-10T09:59:30;1073.53;;;80.45;;
74620;SDS011;64861;47.546;19.254;2022-12-10T10:05:00;842.55;;;60.20;;
74620;SDS011;64861;47.546;19.254;2022-12-10T10:07:42;771.08;;;56.60;;
74620;SDS011;64861;47.546;19.254;2022-12-10T10:10:28;704.05;;;50.55;;
74620;SDS011;64861;47.546;19.254;2022-12-10T10:15:33;641.03;;;48.75;;
74620;SDS011;64861;47.546;19.254;2022-12-10T10:20:41;587.53;;;42.63;;
74620;SDS011;64861;47.546;19.254;2022-12-10T10:23:08;597.55;;;42.80;;
74620;SDS011;64861;47.546;19.254;2022-12-10T10:25:37;555.35;;;43.05;;
74620;SDS011;64861;47.546;19.254;2022-12-10T10:28:03;639.83;;;43.53;;
74620;SDS011;64861;47.546;19.254;2022-12-10T10:30:29;649.88;;;46.53;;
74620;SDS011;64861;47.546;19.254;2022-12-10T10:32:55;582.30;;;42.47;;
74620;SDS011;64861;47.546;19.254;2022-12-10T10:35:29;652.72;;;43.65;;
74620;SDS011;64861;47.546;19.254;2022-12-10T10:38:01;668.28;;;50.70;;
74620;SDS011;64861;47.546;19.254;2022-12-10T10:40:45;483.45;;;38.15;;
74620;SDS011;64861;47.546;19.254;2022-12-10T10:43:15;558.15;;;41.63;;
74620;SDS011;64861;47.546;19.254;2022-12-10T10:46:21;519.35;;;39.60;;
74620;SDS011;64861;47.546;19.254;2022-12-10T10:48:39;494.20;;;38.00;;
74620;SDS011;64861;47.546;19.254;2022-12-10T10:51:06;474.48;;;37.05;;
74620;SDS011;64861;47.546;19.254;2022-12-10T10:56:17;473.30;;;40.35;;
74620;SDS011;64861;47.546;19.254;2022-12-10T11:04:19;587.15;;;48.17;;
74620;SDS011;64861;47.546;19.254;2022-12-10T11:07:01;620.90;;;46.78;;
74620;SDS011;64861;47.546;19.254;2022-12-10T11:09:29;556.53;;;44.40;;
74620;SDS011;64861;47.546;19.254;2022-12-10T11:11:59;652.42;;;49.25;;
74620;SDS011;64861;47.546;19.254;2022-12-10T11:14:39;561.10;;;45.15;;
74620;SDS011;64861;47.546;19.254;2022-12-10T11:19:34;548.75;;;45.45;;
74620;SDS011;64861;47.546;19.254;2022-12-10T11:24:47;480.15;;;39.17;;
74620;SDS011;64861;47.546;19.254;2022-12-10T11:27:23;473.25;;;38.53;;
74620;SDS011;64861;47.546;19.254;2022-12-10T11:30:05;477.30;;;39.22;;
74620;SDS011;64861;47.546;19.254;2022-12-10T11:46:07;468.33;;;39.35;;
74620;SDS011;64861;47.546;19.254;2022-12-10T11:51:42;463.92;;;37.63;;
74620;SDS011;64861;47.546;19.254;2022-12-10T11:54:13;385.60;;;29.00;;
74620;SDS011;64861;47.546;19.254;2022-12-10T11:57:31;437.98;;;34.47;;
74620;SDS011;64861;47.546;19.254;2022-12-10T12:08:20;327.85;;;30.13;;
74620;SDS011;64861;47.546;19.254;2022-12-10T12:11:17;139.07;;;24.60;;
74620;SDS011;64861;47.546;19.254;2022-12-10T12:17:03;222.10;;;24.52;;
74620;SDS011;64861;47.546;19.254;2022-12-10T12:19:39;421.50;;;33.78;;
74620;SDS011;64861;47.546;19.254;2022-12-10T12:22:21;283.63;;;25.38;;
74620;SDS011;64861;47.546;19.254;2022-12-10T12:24:47;328.42;;;26.85;;
74620;SDS011;64861;47.546;19.254;2022-12-10T12:32:54;376.95;;;29.98;;
74620;SDS011;64861;47.546;19.254;2022-12-10T12:35:28;368.10;;;29.63;;
74620;SDS011;64861;47.546;19.254;2022-12-10T12:38:03;337.13;;;26.80;;
74620;SDS011;64861;47.546;19.254;2022-12-10T12:40:47;286.05;;;25.63;;
74620;SDS011;64861;47.546;19.254;2022-12-10T12:43:19;302.83;;;27.15;;
74620;SDS011;64861;47.546;19.254;2022-12-10T12:45:52;308.15;;;25.52;;
74620;SDS011;64861;47.546;19.254;2022-12-10T12:48:22;266.27;;;22.40;;
74620;SDS011;64861;47.546;19.254;2022-12-10T12:53:20;191.23;;;21.65;;
74620;SDS011;64861;47.546;19.254;2022-12-10T13:01:25;577.58;;;45.10;;
74620;SDS011;64861;47.546;19.254;2022-12-10T13:03:59;281.88;;;26.65;;
74620;SDS011;64861;47.546;19.254;2022-12-10T13:06:27;239.05;;;24.58;;
74620;SDS011;64861;47.546;19.254;2022-12-10T13:09:15;200.10;;;21.50;;
74620;SDS011;64861;47.546;19.254;2022-12-10T13:17:26;202.18;;;22.40;;
74620;SDS011;64861;47.546;19.254;2022-12-10T13:23:03;200.60;;;22.35;;
74620;SDS011;64861;47.546;19.254;2022-12-10T13:33:47;658.75;;;45.83;;
74620;SDS011;64861;47.546;19.254;2022-12-10T13:41:32;456.40;;;35.42;;
74620;SDS011;64861;47.546;19.254;2022-12-10T13:44:49;334.93;;;28.80;;
74620;SDS011;64861;47.546;19.254;2022-12-10T13:53:29;262.00;;;25.50;;
74620;SDS011;64861;47.546;19.254;2022-12-10T14:01:31;208.98;;;21.65;;
74620;SDS011;64861;47.546;19.254;2022-12-10T14:07:17;203.25;;;22.83;;
74620;SDS011;64861;47.546;19.254;2022-12-10T14:09:48;174.85;;;19.50;;
74620;SDS011;64861;47.546;19.254;2022-12-10T14:12:18;176.55;;;19.20;;
74620;SDS011;64861;47.546;19.254;2022-12-10T14:14:52;148.25;;;18.35;;
74620;SDS011;64861;47.546;19.254;2022-12-10T14:17:24;167.10;;;19.23;;
74620;SDS011;64861;47.546;19.254;2022-12-10T14:20:06;145.30;;;17.38;;
74620;SDS011;64861;47.546;19.254;2022-12-10T14:22:34;146.95;;;16.55;;
74620;SDS011;64861;47.546;19.254;2022-12-10T14:25:04;116.43;;;16.95;;
74620;SDS011;64861;47.546;19.254;2022-12-10T14:27:32;124.68;;;17.52;;
74620;SDS011;64861;47.546;19.254;2022-12-10T14:30:03;105.90;;;15.63;;
74620;SDS011;64861;47.546;19.254;2022-12-10T14:32:35;216.50;;;18.80;;
74620;SDS011;64861;47.546;19.254;2022-12-10T14:35:03;163.60;;;16.95;;
74620;SDS011;64861;47.546;19.254;2022-12-10T14:37:32;160.90;;;18.05;;
74620;SDS011;64861;47.546;19.254;2022-12-10T14:40:01;155.57;;;16.23;;
74620;SDS011;64861;47.546;19.254;2022-12-10T14:42:29;118.47;;;15.70;;
74620;SDS011;64861;47.546;19.254;2022-12-10T14:44:59;119.22;;;15.63;;
74620;SDS011;64861;47.546;19.254;2022-12-10T14:47:32;167.90;;;17.83;;
74620;SDS011;64861;47.546;19.254;2022-12-10T14:50:01;154.13;;;16.35;;
74620;SDS011;64861;47.546;19.254;2022-12-10T14:52:38;145.45;;;17.10;;
74620;SDS011;64861;47.546;19.254;2022-12-10T14:55:06;145.48;;;16.33;;
74620;SDS011;64861;47.546;19.254;2022-12-10T14:57:40;205.68;;;18.70;;
74620;SDS011;64861;47.546;19.254;2022-12-10T15:00:16;140.07;;;16.48;;
74620;SDS011;64861;47.546;19.254;2022-12-10T15:02:48;166.38;;;17.25;;
74620;SDS011;64861;47.546;19.254;2022-12-10T15:05:19;161.70;;;17.60;;
74620;SDS011;64861;47.546;19.254;2022-12-10T15:08:04;163.43;;;17.45;;
74620;SDS011;64861;47.546;19.254;2022-12-10T15:10:36;158.05;;;17.73;;
74620;SDS011;64861;47.546;19.254;2022-12-10T15:13:03;141.73;;;15.65;;
74620;SDS011;64861;47.546;19.254;2022-12-10T15:15:34;157.57;;;15.77;;
74620;SDS011;64861;47.546;19.254;2022-12-10T15:20:37;107.95;;;15.43;;
74620;SDS011;64861;47.546;19.254;2022-12-10T15:23:20;120.32;;;14.77;;
74620;SDS011;64861;47.546;19.254;2022-12-10T15:28:28;132.77;;;14.38;;
74620;SDS011;64861;47.546;19.254;2022-12-10T15:33:50;131.90;;;14.98;;
74620;SDS011;64861;47.546;19.254;2022-12-10T15:41:49;109.05;;;13.18;;
74620;SDS011;64861;47.546;19.254;2022-12-10T15:44:17;112.65;;;13.73;;
74620;SDS011;64861;47.546;19.254;2022-12-10T15:47:03;99.40;;;13.60;;
74620;SDS011;64861;47.546;19.254;2022-12-10T15:49:38;90.10;;;12.35;;
74620;SDS011;64861;47.546;19.254;2022-12-10T15:52:04;80.40;;;11.52;;
74620;SDS011;64861;47.546;19.254;2022-12-10T15:56:58;83.38;;;11.65;;
74620;SDS011;64861;47.546;19.254;2022-12-10T15:59:23;83.55;;;12.65;;
74620;SDS011;64861;47.546;19.254;2022-12-10T16:01:49;76.63;;;10.75;;
74620;SDS011;64861;47.546;19.254;2022-12-10T16:04:14;79.03;;;11.27;;
74620;SDS011;64861;47.546;19.254;2022-12-10T16:06:40;70.90;;;11.35;;
74620;SDS011;64861;47.546;19.254;2022-12-10T16:09:07;71.93;;;11.23;;
74620;SDS011;64861;47.546;19.254;2022-12-10T16:11:33;51.75;;;11.15;;
74620;SDS011;64861;47.546;19.254;2022-12-10T16:13:59;72.45;;;11.55;;
74620;SDS011;64861;47.546;19.254;2022-12-10T16:16:25;69.07;;;10.57;;
74620;SDS011;64861;47.546;19.254;2022-12-10T16:18:51;70.47;;;11.00;;
74620;SDS011;64861;47.546;19.254;2022-12-10T16:21:17;66.82;;;10.35;;
74620;SDS011;64861;47.546;19.254;2022-12-10T16:23:42;53.53;;;10.60;;
74620;SDS011;64861;47.546;19.254;2022-12-10T16:26:16;77.70;;;10.77;;
74620;SDS011;64861;47.546;19.254;2022-12-10T16:28:46;61.30;;;10.63;;
74620;SDS011;64861;47.546;19.254;2022-12-10T16:31:17;56.95;;;10.68;;
74620;SDS011;64861;47.546;19.254;2022-12-10T16:33:45;67.88;;;11.02;;
74620;SDS011;64861;47.546;19.254;2022-12-10T16:36:12;46.55;;;9.80;;
74620;SDS011;64861;47.546;19.254;2022-12-10T16:38:38;72.25;;;10.93;;
74620;SDS011;64861;47.546;19.254;2022-12-10T16:41:09;64.30;;;9.73;;
74620;SDS011;64861;47.546;19.254;2022-12-10T16:43:41;63.92;;;10.15;;
74620;SDS011;64861;47.546;19.254;2022-12-10T16:46:08;67.97;;;10.85;;
74620;SDS011;64861;47.546;19.254;2022-12-10T16:48:35;61.83;;;9.75;;
74620;SDS011;64861;47.546;19.254;2022-12-10T16:51:01;50.05;;;10.15;;